sensor_id;sensor_type;location;lat;lon;timestamp;pressure;altitude;pressure_sealevel;temperature;humidity
75681;BME280;64294;49.176;16.626;2023-01-31T00:00:45;98969.00;;;2.85;81.60
75681;BME280;64294;49.176;16.626;2023-01-31T00:03:11;98969.88;;;3.02;81.83
75681;BME280;64294;49.176;16.626;2023-01-31T00:05:36;98969.16;;;3.07;81.84
75681;BME280;64294;49.176;16.626;2023-01-31T00:08:02;98968.84;;;2.99;82.54
75681;BME280;64294;49.176;16.626;2023-01-31T00:10:27;98948.03;;;2.84;83.94
75681;BME280;64294;49.176;16.626;2023-01-31T00:12:52;98969.16;;;2.76;85.06
75681;BME280;64294;49.176;16.626;2023-01-31T00:15:18;98957.88;;;2.53;86.71
75681;BME280;64294;49.176;16.626;2023-01-31T00:17:44;98969.44;;;2.46;87.94
75681;BME280;64294;49.176;16.626;2023-01-31T00:20:10;98990.50;;;2.38;88.93
75681;BME280;64294;49.176;16.626;2023-01-31T00:22:35;98984.69;;;2.36;89.92
75681;BME280;64294;49.176;16.626;2023-01-31T00:25:00;98982.63;;;2.31;90.05
75681;BME280;64294;49.176;16.626;2023-01-31T00:27:26;98988.91;;;2.26;90.37
75681;BME280;64294;49.176;16.626;2023-01-31T00:29:52;98983.22;;;2.15;90.84
75681;BME280;64294;49.176;16.626;2023-01-31T00:32:17;98985.31;;;1.99;91.37
75681;BME280;64294;49.176;16.626;2023-01-31T00:34:42;98991.56;;;1.94;91.49
75681;BME280;64294;49.176;16.626;2023-01-31T00:37:08;98979.56;;;1.82;92.32
75681;BME280;64294;49.176;16.626;2023-01-31T00:39:33;98988.09;;;1.79;91.73
75681;BME280;64294;49.176;16.626;2023-01-31T00:41:58;98995.50;;;1.67;92.34
75681;BME280;64294;49.176;16.626;2023-01-31T00:44:24;99002.78;;;1.65;91.63
75681;BME280;64294;49.176;16.626;2023-01-31T00:46:49;98999.06;;;1.88;90.75
75681;BME280;64294;49.176;16.626;2023-01-31T00:49:16;99006.47;;;1.76;91.32
75681;BME280;64294;49.176;16.626;2023-01-31T00:51:41;99006.25;;;2.00;89.47
75681;BME280;64294;49.176;16.626;2023-01-31T00:54:08;99012.75;;;1.97;89.51
75681;BME280;64294;49.176;16.626;2023-01-31T00:56:34;99011.25;;;1.96;89.81
75681;BME280;64294;49.176;16.626;2023-01-31T00:59:00;99010.97;;;1.94;90.65
75681;BME280;64294;49.176;16.626;2023-01-31T01:01:28;99016.78;;;1.96;90.15
75681;BME280;64294;49.176;16.626;2023-01-31T01:03:55;99033.97;;;2.00;89.63
75681;BME280;64294;49.176;16.626;2023-01-31T01:06:22;99033.56;;;2.07;89.66
75681;BME280;64294;49.176;16.626;2023-01-31T01:08:47;99044.06;;;2.24;88.62
75681;BME280;64294;49.176;16.626;2023-01-31T01:11:15;99045.16;;;2.32;90.11
75681;BME280;64294;49.176;16.626;2023-01-31T01:13:42;99048.47;;;2.36;92.28
75681;BME280;64294;49.176;16.626;2023-01-31T01:16:12;99041.94;;;2.39;94.60
75681;BME280;64294;49.176;16.626;2023-01-31T01:18:38;99048.69;;;2.32;96.37
75681;BME280;64294;49.176;16.626;2023-01-31T01:21:12;99045.16;;;2.32;99.28
75681;BME280;64294;49.176;16.626;2023-01-31T01:23:39;99042.25;;;2.21;100.00
75681;BME280;64294;49.176;16.626;2023-01-31T01:26:05;99040.13;;;2.10;100.00
75681;BME280;64294;49.176;16.626;2023-01-31T01:28:37;99029.88;;;1.96;100.00
75681;BME280;64294;49.176;16.626;2023-01-31T01:31:06;99032.38;;;1.73;100.00
75681;BME280;64294;49.176;16.626;2023-01-31T01:33:33;99030.63;;;1.56;100.00
75681;BME280;64294;49.176;16.626;2023-01-31T01:36:03;99025.81;;;1.36;100.00
75681;BME280;64294;49.176;16.626;2023-01-31T01:38:29;99032.69;;;1.26;100.00
75681;BME280;64294;49.176;16.626;2023-01-31T01:40:55;99035.47;;;1.11;100.00
75681;BME280;64294;49.176;16.626;2023-01-31T01:43:21;99034.66;;;1.05;100.00
75681;BME280;64294;49.176;16.626;2023-01-31T01:45:49;99033.31;;;1.15;100.00
75681;BME280;64294;49.176;16.626;2023-01-31T01:48:17;99034.50;;;1.29;100.00
75681;BME280;64294;49.176;16.626;2023-01-31T01:50:47;99048.34;;;1.29;100.00
75681;BME280;64294;49.176;16.626;2023-01-31T01:53:24;99050.25;;;1.37;100.00
75681;BME280;64294;49.176;16.626;2023-01-31T01:58:26;99033.72;;;1.63;100.00
75681;BME280;64294;49.176;16.626;2023-01-31T02:00:54;99060.94;;;1.65;100.00
75681;BME280;64294;49.176;16.626;2023-01-31T02:03:19;99062.44;;;1.80;100.00
75681;BME280;64294;49.176;16.626;2023-01-31T02:08:12;99055.78;;;1.93;100.00
75681;BME280;64294;49.176;16.626;2023-01-31T02:10:46;99059.06;;;1.91;100.00
75681;BME280;64294;49.176;16.626;2023-01-31T02:13:13;99065.28;;;1.86;100.00
75681;BME280;64294;49.176;16.626;2023-01-31T02:15:39;99073.94;;;1.73;100.00
75681;BME280;64294;49.176;16.626;2023-01-31T02:18:06;99060.78;;;1.68;100.00
75681;BME280;64294;49.176;16.626;2023-01-31T02:38:12;99095.16;;;1.12;99.71
75681;BME280;64294;49.176;16.626;2023-01-31T02:40:53;99092.34;;;1.27;96.51
75681;BME280;64294;49.176;16.626;2023-01-31T02:46:39;99106.56;;;1.49;93.85
75681;BME280;64294;49.176;16.626;2023-01-31T02:49:14;99100.06;;;1.52;93.65
75681;BME280;64294;49.176;16.626;2023-01-31T02:54:43;99116.38;;;1.85;91.88
75681;BME280;64294;49.176;16.626;2023-01-31T02:57:31;99114.75;;;1.93;93.04
75681;BME280;64294;49.176;16.626;2023-01-31T02:59:57;99129.94;;;1.98;93.93
75681;BME280;64294;49.176;16.626;2023-01-31T03:02:24;99141.91;;;1.89;95.42
75681;BME280;64294;49.176;16.626;2023-01-31T03:04:49;99138.56;;;1.85;96.51
75681;BME280;64294;49.176;16.626;2023-01-31T03:07:23;99144.22;;;1.76;97.72
75681;BME280;64294;49.176;16.626;2023-01-31T03:14:22;99157.53;;;1.57;100.00
75681;BME280;64294;49.176;16.626;2023-01-31T03:16:31;99152.78;;;1.58;100.00
75681;BME280;64294;49.176;16.626;2023-01-31T03:19:34;99160.81;;;1.41;100.00
75681;BME280;64294;49.176;16.626;2023-01-31T03:22:09;99165.38;;;1.29;100.00
75681;BME280;64294;49.176;16.626;2023-01-31T03:24:35;99163.69;;;1.17;100.00
75681;BME280;64294;49.176;16.626;2023-01-31T03:27:02;99162.72;;;1.20;100.00
75681;BME280;64294;49.176;16.626;2023-01-31T03:29:31;99172.75;;;1.17;100.00
75681;BME280;64294;49.176;16.626;2023-01-31T03:32:17;99171.50;;;1.18;100.00
75681;BME280;64294;49.176;16.626;2023-01-31T03:34:45;99175.88;;;1.25;100.00
75681;BME280;64294;49.176;16.626;2023-01-31T03:37:16;99177.88;;;1.10;100.00
75681;BME280;64294;49.176;16.626;2023-01-31T03:45:05;99189.88;;;0.92;100.00
75681;BME280;64294;49.176;16.626;2023-01-31T03:47:38;99194.97;;;0.94;100.00
75681;BME280;64294;49.176;16.626;2023-01-31T03:50:09;99190.16;;;0.79;100.00
75681;BME280;64294;49.176;16.626;2023-01-31T03:52:51;99182.88;;;0.67;100.00
75681;BME280;64294;49.176;16.626;2023-01-31T03:55:23;99199.28;;;0.71;100.00
75681;BME280;64294;49.176;16.626;2023-01-31T03:57:53;99181.16;;;0.70;100.00
75681;BME280;64294;49.176;16.626;2023-01-31T04:00:21;99189.94;;;0.68;100.00
75681;BME280;64294;49.176;16.626;2023-01-31T04:03:06;99194.84;;;0.88;100.00
75681;BME280;64294;49.176;16.626;2023-01-31T04:05:32;99196.97;;;0.93;98.97
75681;BME280;64294;49.176;16.626;2023-01-31T04:07:58;99204.66;;;0.89;99.06
75681;BME280;64294;49.176;16.626;2023-01-31T04:10:24;99198.78;;;0.96;98.91
75681;BME280;64294;49.176;16.626;2023-01-31T04:12:50;99207.16;;;0.87;99.35
75681;BME280;64294;49.176;16.626;2023-01-31T04:15:16;99212.69;;;0.87;98.92
75681;BME280;64294;49.176;16.626;2023-01-31T04:17:42;99210.91;;;0.99;99.45
75681;BME280;64294;49.176;16.626;2023-01-31T04:20:09;99213.31;;;1.20;95.40
75681;BME280;64294;49.176;16.626;2023-01-31T04:22:35;99226.59;;;1.31;95.09
75681;BME280;64294;49.176;16.626;2023-01-31T04:25:00;99216.56;;;1.34;94.23
75681;BME280;64294;49.176;16.626;2023-01-31T04:27:26;99215.81;;;1.33;94.31
75681;BME280;64294;49.176;16.626;2023-01-31T04:29:52;99228.41;;;1.34;93.96
75681;BME280;64294;49.176;16.626;2023-01-31T04:32:17;99218.88;;;1.35;93.69
75681;BME280;64294;49.176;16.626;2023-01-31T04:34:42;99226.88;;;1.48;93.03
75681;BME280;64294;49.176;16.626;2023-01-31T04:37:08;99222.50;;;1.71;91.33
75681;BME280;64294;49.176;16.626;2023-01-31T04:39:33;99239.13;;;1.71;91.65
75681;BME280;64294;49.176;16.626;2023-01-31T04:41:59;99234.13;;;1.75;92.33
75681;BME280;64294;49.176;16.626;2023-01-31T04:44:24;99243.56;;;1.83;93.10
75681;BME280;64294;49.176;16.626;2023-01-31T04:46:49;99238.03;;;1.83;93.87
75681;BME280;64294;49.176;16.626;2023-01-31T04:49:15;99241.78;;;1.80;95.00
75681;BME280;64294;49.176;16.626;2023-01-31T04:51:40;99250.56;;;1.78;95.89
75681;BME280;64294;49.176;16.626;2023-01-31T04:54:06;99263.94;;;1.80;96.50
75681;BME280;64294;49.176;16.626;2023-01-31T04:56:31;99268.06;;;1.70;98.16
75681;BME280;64294;49.176;16.626;2023-01-31T04:58:57;99272.72;;;1.64;98.60
75681;BME280;64294;49.176;16.626;2023-01-31T05:01:23;99268.34;;;1.57;98.66
75681;BME280;64294;49.176;16.626;2023-01-31T05:03:49;99266.03;;;1.41;100.00
75681;BME280;64294;49.176;16.626;2023-01-31T05:06:15;99263.44;;;1.23;100.00
75681;BME280;64294;49.176;16.626;2023-01-31T05:08:40;99279.72;;;1.06;100.00
75681;BME280;64294;49.176;16.626;2023-01-31T05:11:06;99271.59;;;1.02;100.00
75681;BME280;64294;49.176;16.626;2023-01-31T05:13:33;99282.31;;;0.85;100.00
75681;BME280;64294;49.176;16.626;2023-01-31T05:16:06;99281.94;;;0.78;100.00
75681;BME280;64294;49.176;16.626;2023-01-31T05:18:33;99283.16;;;0.77;100.00
75681;BME280;64294;49.176;16.626;2023-01-31T05:20:59;99277.97;;;0.70;100.00
75681;BME280;64294;49.176;16.626;2023-01-31T05:23:25;99275.78;;;0.74;100.00
75681;BME280;64294;49.176;16.626;2023-01-31T05:25:50;99272.91;;;0.68;100.00
75681;BME280;64294;49.176;16.626;2023-01-31T05:28:16;99279.69;;;0.67;100.00
75681;BME280;64294;49.176;16.626;2023-01-31T05:30:41;99281.44;;;0.55;100.00
75681;BME280;64294;49.176;16.626;2023-01-31T05:33:06;99282.50;;;0.58;100.00
75681;BME280;64294;49.176;16.626;2023-01-31T05:35:32;99270.09;;;0.77;100.00
75681;BME280;64294;49.176;16.626;2023-01-31T05:37:58;99274.91;;;0.91;100.00
75681;BME280;64294;49.176;16.626;2023-01-31T05:40:23;99276.00;;;1.09;100.00
75681;BME280;64294;49.176;16.626;2023-01-31T05:42:56;99288.53;;;1.19;99.16
75681;BME280;64294;49.176;16.626;2023-01-31T05:45:22;99291.41;;;1.25;98.67
75681;BME280;64294;49.176;16.626;2023-01-31T05:47:47;99301.16;;;1.35;96.73
75681;BME280;64294;49.176;16.626;2023-01-31T05:50:13;99293.34;;;1.48;96.68
75681;BME280;64294;49.176;16.626;2023-01-31T05:52:39;99307.47;;;1.35;99.52
75681;BME280;64294;49.176;16.626;2023-01-31T05:55:04;99312.34;;;1.40;100.00
75681;BME280;64294;49.176;16.626;2023-01-31T05:57:30;99322.16;;;1.27;100.00
75681;BME280;64294;49.176;16.626;2023-01-31T05:59:55;99320.81;;;1.22;100.00
75681;BME280;64294;49.176;16.626;2023-01-31T06:02:21;99333.63;;;1.10;100.00
75681;BME280;64294;49.176;16.626;2023-01-31T06:04:46;99315.88;;;1.02;100.00
75681;BME280;64294;49.176;16.626;2023-01-31T06:07:11;99346.84;;;0.91;100.00
75681;BME280;64294;49.176;16.626;2023-01-31T06:09:37;99336.72;;;0.88;100.00
75681;BME280;64294;49.176;16.626;2023-01-31T06:12:05;99353.03;;;0.86;100.00
75681;BME280;64294;49.176;16.626;2023-01-31T06:14:30;99357.31;;;0.87;100.00
75681;BME280;64294;49.176;16.626;2023-01-31T06:16:56;99361.09;;;0.75;100.00
75681;BME280;64294;49.176;16.626;2023-01-31T06:19:22;99359.84;;;0.76;100.00
75681;BME280;64294;49.176;16.626;2023-01-31T06:21:50;99373.34;;;0.83;100.00
75681;BME280;64294;49.176;16.626;2023-01-31T06:24:16;99382.91;;;0.73;100.00
75681;BME280;64294;49.176;16.626;2023-01-31T06:26:41;99383.38;;;0.72;100.00
75681;BME280;64294;49.176;16.626;2023-01-31T06:29:09;99383.28;;;0.90;100.00
75681;BME280;64294;49.176;16.626;2023-01-31T06:31:35;99373.34;;;0.83;100.00
75681;BME280;64294;49.176;16.626;2023-01-31T06:34:00;99395.66;;;0.80;100.00
75681;BME280;64294;49.176;16.626;2023-01-31T06:36:26;99391.81;;;0.77;100.00
75681;BME280;64294;49.176;16.626;2023-01-31T06:38:52;99396.69;;;0.82;100.00
75681;BME280;64294;49.176;16.626;2023-01-31T06:41:18;99399.47;;;0.82;100.00
75681;BME280;64294;49.176;16.626;2023-01-31T06:43:44;99405.31;;;0.84;100.00
75681;BME280;64294;49.176;16.626;2023-01-31T06:46:09;99402.66;;;0.90;100.00
75681;BME280;64294;49.176;16.626;2023-01-31T06:48:35;99406.94;;;0.91;100.00
75681;BME280;64294;49.176;16.626;2023-01-31T06:51:00;99420.16;;;0.96;100.00
75681;BME280;64294;49.176;16.626;2023-01-31T06:53:25;99412.75;;;1.02;100.00
75681;BME280;64294;49.176;16.626;2023-01-31T06:55:51;99410.63;;;0.97;100.00
75681;BME280;64294;49.176;16.626;2023-01-31T06:58:16;99409.63;;;1.09;100.00
75681;BME280;64294;49.176;16.626;2023-01-31T07:00:42;99422.09;;;1.05;100.00
75681;BME280;64294;49.176;16.626;2023-01-31T07:03:08;99415.63;;;1.08;100.00
75681;BME280;64294;49.176;16.626;2023-01-31T07:05:33;99419.16;;;1.08;100.00
75681;BME280;64294;49.176;16.626;2023-01-31T07:07:59;99426.97;;;1.10;100.00
75681;BME280;64294;49.176;16.626;2023-01-31T07:10:24;99424.84;;;1.14;100.00
75681;BME280;64294;49.176;16.626;2023-01-31T07:12:49;99426.41;;;1.30;100.00
75681;BME280;64294;49.176;16.626;2023-01-31T07:15:15;99417.56;;;1.40;100.00
75681;BME280;64294;49.176;16.626;2023-01-31T07:17:40;99421.69;;;1.45;100.00
75681;BME280;64294;49.176;16.626;2023-01-31T07:20:07;99419.84;;;1.66;100.00
75681;BME280;64294;49.176;16.626;2023-01-31T07:22:32;99431.81;;;1.72;100.00
75681;BME280;64294;49.176;16.626;2023-01-31T07:24:58;99424.66;;;1.80;99.67
75681;BME280;64294;49.176;16.626;2023-01-31T07:27:23;99437.00;;;1.94;96.07
75681;BME280;64294;49.176;16.626;2023-01-31T07:29:49;99442.38;;;1.97;97.10
75681;BME280;64294;49.176;16.626;2023-01-31T07:32:14;99446.38;;;1.96;95.65
75681;BME280;64294;49.176;16.626;2023-01-31T07:34:39;99443.84;;;2.07;93.57
75681;BME280;64294;49.176;16.626;2023-01-31T07:37:05;99449.00;;;2.15;94.19
75681;BME280;64294;49.176;16.626;2023-01-31T07:39:30;99447.84;;;2.21;92.54
75681;BME280;64294;49.176;16.626;2023-01-31T07:41:56;99446.91;;;2.39;90.34
75681;BME280;64294;49.176;16.626;2023-01-31T07:44:21;99454.25;;;2.57;88.52
75681;BME280;64294;49.176;16.626;2023-01-31T07:46:46;99461.72;;;2.65;88.90
75681;BME280;64294;49.176;16.626;2023-01-31T07:49:12;99465.81;;;2.85;86.05
75681;BME280;64294;49.176;16.626;2023-01-31T07:51:38;99461.78;;;2.86;86.84
75681;BME280;64294;49.176;16.626;2023-01-31T07:54:09;99460.97;;;3.15;86.18
75681;BME280;64294;49.176;16.626;2023-01-31T07:56:35;99470.81;;;3.51;81.64
75681;BME280;64294;49.176;16.626;2023-01-31T07:59:01;99467.03;;;3.33;81.30
75681;BME280;64294;49.176;16.626;2023-01-31T08:01:27;99478.31;;;3.45;80.12
75681;BME280;64294;49.176;16.626;2023-01-31T08:04:12;99484.31;;;3.78;79.36
75681;BME280;64294;49.176;16.626;2023-01-31T08:06:39;99489.41;;;6.12;70.36
75681;BME280;64294;49.176;16.626;2023-01-31T08:09:05;99491.72;;;8.28;60.94
75681;BME280;64294;49.176;16.626;2023-01-31T08:11:31;99488.72;;;10.38;51.51
75681;BME280;64294;49.176;16.626;2023-01-31T08:13:56;99491.56;;;9.21;51.76
75681;BME280;64294;49.176;16.626;2023-01-31T08:16:22;99496.69;;;8.52;55.86
75681;BME280;64294;49.176;16.626;2023-01-31T08:18:47;99502.22;;;6.68;59.57
75681;BME280;64294;49.176;16.626;2023-01-31T08:21:14;99522.50;;;5.82;64.33
75681;BME280;64294;49.176;16.626;2023-01-31T08:23:40;99511.41;;;4.81;68.60
75681;BME280;64294;49.176;16.626;2023-01-31T08:26:10;99526.56;;;4.49;72.79
75681;BME280;64294;49.176;16.626;2023-01-31T08:28:37;99521.75;;;4.03;76.24
75681;BME280;64294;49.176;16.626;2023-01-31T08:31:03;99528.22;;;3.74;78.19
75681;BME280;64294;49.176;16.626;2023-01-31T08:33:29;99535.47;;;3.51;81.85
75681;BME280;64294;49.176;16.626;2023-01-31T08:35:54;99528.03;;;3.43;84.41
75681;BME280;64294;49.176;16.626;2023-01-31T08:38:20;99534.66;;;3.30;85.82
75681;BME280;64294;49.176;16.626;2023-01-31T08:40:45;99545.97;;;3.42;86.77
75681;BME280;64294;49.176;16.626;2023-01-31T08:43:11;99545.69;;;3.40;87.50
75681;BME280;64294;49.176;16.626;2023-01-31T08:45:36;99533.47;;;3.52;86.19
75681;BME280;64294;49.176;16.626;2023-01-31T08:48:02;99551.47;;;3.21;88.09
75681;BME280;64294;49.176;16.626;2023-01-31T08:50:30;99549.94;;;3.06;89.27
75681;BME280;64294;49.176;16.626;2023-01-31T08:52:58;99560.56;;;2.78;92.33
75681;BME280;64294;49.176;16.626;2023-01-31T08:55:28;99560.75;;;2.45;94.94
75681;BME280;64294;49.176;16.626;2023-01-31T08:57:53;99563.19;;;2.28;97.48
75681;BME280;64294;49.176;16.626;2023-01-31T09:00:20;99569.09;;;2.21;98.48
75681;BME280;64294;49.176;16.626;2023-01-31T09:02:57;99576.75;;;2.02;100.00
75681;BME280;64294;49.176;16.626;2023-01-31T09:05:23;99579.38;;;2.05;100.00
75681;BME280;64294;49.176;16.626;2023-01-31T09:07:49;99587.09;;;2.01;100.00
75681;BME280;64294;49.176;16.626;2023-01-31T09:10:19;99583.38;;;2.04;100.00
75681;BME280;64294;49.176;16.626;2023-01-31T09:12:45;99577.81;;;2.04;100.00
75681;BME280;64294;49.176;16.626;2023-01-31T09:15:11;99583.56;;;2.25;100.00
75681;BME280;64294;49.176;16.626;2023-01-31T09:17:37;99593.25;;;2.44;100.00
75681;BME280;64294;49.176;16.626;2023-01-31T09:20:03;99584.28;;;2.49;100.00
75681;BME280;64294;49.176;16.626;2023-01-31T09:22:32;99591.16;;;2.54;100.00
75681;BME280;64294;49.176;16.626;2023-01-31T09:24:58;99594.81;;;2.74;100.00
75681;BME280;64294;49.176;16.626;2023-01-31T09:27:25;99585.06;;;2.94;99.13
75681;BME280;64294;49.176;16.626;2023-01-31T09:29:51;99587.97;;;2.99;97.25
75681;BME280;64294;49.176;16.626;2023-01-31T09:32:16;99582.97;;;3.18;96.97
75681;BME280;64294;49.176;16.626;2023-01-31T09:34:42;99597.50;;;3.13;97.16
75681;BME280;64294;49.176;16.626;2023-01-31T09:37:07;99596.38;;;3.05;99.23
75681;BME280;64294;49.176;16.626;2023-01-31T09:39:32;99604.03;;;2.81;99.45
75681;BME280;64294;49.176;16.626;2023-01-31T09:44:41;99601.31;;;3.60;95.51
75681;BME280;64294;49.176;16.626;2023-01-31T09:49:50;99600.28;;;4.13;90.61
75681;BME280;64294;49.176;16.626;2023-01-31T09:52:17;99603.09;;;4.39;90.47
75681;BME280;64294;49.176;16.626;2023-01-31T09:54:43;99612.84;;;4.49;89.37
75681;BME280;64294;49.176;16.626;2023-01-31T09:57:22;99602.22;;;4.47;89.50
75681;BME280;64294;49.176;16.626;2023-01-31T10:05:24;99608.03;;;4.09;98.86
75681;BME280;64294;49.176;16.626;2023-01-31T10:10:48;99588.53;;;3.68;93.92
75681;BME280;64294;49.176;16.626;2023-01-31T10:13:34;99587.25;;;4.04;95.35
75681;BME280;64294;49.176;16.626;2023-01-31T10:16:28;99582.78;;;5.05;88.71
75681;BME280;64294;49.176;16.626;2023-01-31T10:19:11;99582.75;;;6.87;80.05
75681;BME280;64294;49.176;16.626;2023-01-31T10:21:42;99585.38;;;6.31;80.82
75681;BME280;64294;49.176;16.626;2023-01-31T10:24:17;99573.13;;;6.12;81.65
75681;BME280;64294;49.176;16.626;2023-01-31T10:26:50;99575.03;;;5.52;83.86
75681;BME280;64294;49.176;16.626;2023-01-31T10:29:34;99574.03;;;5.17;83.74
75681;BME280;64294;49.176;16.626;2023-01-31T10:32:04;99570.88;;;5.04;85.16
75681;BME280;64294;49.176;16.626;2023-01-31T10:34:44;99573.22;;;5.11;86.39
75681;BME280;64294;49.176;16.626;2023-01-31T10:37:38;99565.75;;;5.29;85.78
75681;BME280;64294;49.176;16.626;2023-01-31T10:42:38;99559.81;;;5.47;82.08
75681;BME280;64294;49.176;16.626;2023-01-31T10:50:13;99555.06;;;5.22;81.14
75681;BME280;64294;49.176;16.626;2023-01-31T10:55:46;99550.66;;;5.09;81.43
75681;BME280;64294;49.176;16.626;2023-01-31T10:58:15;99559.13;;;4.95;81.28
75681;BME280;64294;49.176;16.626;2023-01-31T11:00:41;99547.41;;;5.16;78.80
75681;BME280;64294;49.176;16.626;2023-01-31T11:03:10;99537.28;;;5.13;79.16
75681;BME280;64294;49.176;16.626;2023-01-31T11:05:41;99539.00;;;5.05;78.01
75681;BME280;64294;49.176;16.626;2023-01-31T11:08:28;99544.09;;;5.12;77.40
75681;BME280;64294;49.176;16.626;2023-01-31T11:10:57;99534.22;;;5.11;75.94
75681;BME280;64294;49.176;16.626;2023-01-31T11:13:23;99534.41;;;5.02;75.24
75681;BME280;64294;49.176;16.626;2023-01-31T11:15:51;99526.81;;;5.03;77.70
75681;BME280;64294;49.176;16.626;2023-01-31T11:18:42;99531.78;;;5.62;74.38
75681;BME280;64294;49.176;16.626;2023-01-31T11:21:09;99523.00;;;6.45;69.38
75681;BME280;64294;49.176;16.626;2023-01-31T11:23:43;99514.69;;;6.73;66.28
75681;BME280;64294;49.176;16.626;2023-01-31T11:26:09;99522.50;;;6.35;68.33
75681;BME280;64294;49.176;16.626;2023-01-31T11:28:39;99515.00;;;5.99;68.52
75681;BME280;64294;49.176;16.626;2023-01-31T11:31:07;99519.59;;;5.59;69.19
75681;BME280;64294;49.176;16.626;2023-01-31T11:33:43;99518.78;;;5.53;71.23
75681;BME280;64294;49.176;16.626;2023-01-31T11:36:15;99506.00;;;5.35;69.24
75681;BME280;64294;49.176;16.626;2023-01-31T11:38:47;99511.69;;;5.15;69.04
75681;BME280;64294;49.176;16.626;2023-01-31T11:41:34;99513.94;;;5.11;68.95
75681;BME280;64294;49.176;16.626;2023-01-31T11:44:11;99504.91;;;5.22;70.87
75681;BME280;64294;49.176;16.626;2023-01-31T11:49:33;99508.47;;;5.22;68.39
75681;BME280;64294;49.176;16.626;2023-01-31T11:52:00;99500.28;;;5.13;69.50
75681;BME280;64294;49.176;16.626;2023-01-31T11:54:30;99505.00;;;5.01;68.85
75681;BME280;64294;49.176;16.626;2023-01-31T11:56:58;99492.50;;;5.23;70.56
75681;BME280;64294;49.176;16.626;2023-01-31T11:59:26;99504.38;;;5.17;69.43
75681;BME280;64294;49.176;16.626;2023-01-31T12:01:55;99490.09;;;5.04;68.17
75681;BME280;64294;49.176;16.626;2023-01-31T12:04:30;99501.91;;;4.94;69.70
75681;BME280;64294;49.176;16.626;2023-01-31T12:07:02;99489.59;;;4.74;69.37
75681;BME280;64294;49.176;16.626;2023-01-31T12:09:39;99495.09;;;4.95;68.34
75681;BME280;64294;49.176;16.626;2023-01-31T12:12:27;99496.56;;;4.90;68.14
75681;BME280;64294;49.176;16.626;2023-01-31T12:15:03;99494.63;;;5.02;67.20
75681;BME280;64294;49.176;16.626;2023-01-31T12:17:34;99503.97;;;4.99;68.95
75681;BME280;64294;49.176;16.626;2023-01-31T12:20:07;99497.91;;;5.00;68.13
75681;BME280;64294;49.176;16.626;2023-01-31T12:22:41;99493.69;;;5.10;66.24
75681;BME280;64294;49.176;16.626;2023-01-31T12:30:23;99486.19;;;4.91;65.36
75681;BME280;64294;49.176;16.626;2023-01-31T12:36:01;99467.69;;;4.88;66.33
75681;BME280;64294;49.176;16.626;2023-01-31T12:44:50;99481.75;;;4.73;64.89
75681;BME280;64294;49.176;16.626;2023-01-31T12:58:49;99470.47;;;4.88;64.55
75681;BME280;64294;49.176;16.626;2023-01-31T13:01:26;99461.25;;;4.76;64.25
75681;BME280;64294;49.176;16.626;2023-01-31T13:04:12;99469.31;;;4.68;64.63
75681;BME280;64294;49.176;16.626;2023-01-31T13:06:50;99453.72;;;4.50;63.63
75681;BME280;64294;49.176;16.626;2023-01-31T13:09:17;99464.63;;;4.54;64.35
75681;BME280;64294;49.176;16.626;2023-01-31T13:12:07;99466.53;;;4.42;64.37
75681;BME280;64294;49.176;16.626;2023-01-31T13:14:40;99469.75;;;4.35;63.89
75681;BME280;64294;49.176;16.626;2023-01-31T13:17:11;99466.38;;;4.25;64.54
75681;BME280;64294;49.176;16.626;2023-01-31T13:22:15;99472.28;;;4.33;65.23
75681;BME280;64294;49.176;16.626;2023-01-31T13:24:44;99462.34;;;4.52;64.22
75681;BME280;64294;49.176;16.626;2023-01-31T13:27:19;99462.97;;;4.68;63.42
75681;BME280;64294;49.176;16.626;2023-01-31T13:30:03;99465.84;;;4.79;63.69
75681;BME280;64294;49.176;16.626;2023-01-31T13:32:47;99468.09;;;4.75;62.99
75681;BME280;64294;49.176;16.626;2023-01-31T13:35:36;99464.91;;;4.88;62.35
75681;BME280;64294;49.176;16.626;2023-01-31T13:38:07;99461.69;;;5.00;62.85
75681;BME280;64294;49.176;16.626;2023-01-31T13:40:47;99465.81;;;5.10;61.62
75681;BME280;64294;49.176;16.626;2023-01-31T13:43:14;99445.16;;;5.23;60.83
75681;BME280;64294;49.176;16.626;2023-01-31T13:45:48;99456.94;;;5.06;61.57
75681;BME280;64294;49.176;16.626;2023-01-31T13:48:28;99453.41;;;5.06;62.43
75681;BME280;64294;49.176;16.626;2023-01-31T13:53:34;99456.50;;;5.19;60.93
75681;BME280;64294;49.176;16.626;2023-01-31T13:56:01;99450.38;;;5.09;62.08
75681;BME280;64294;49.176;16.626;2023-01-31T13:58:33;99450.50;;;4.89;61.62
75681;BME280;64294;49.176;16.626;2023-01-31T14:01:19;99441.50;;;5.05;62.63
75681;BME280;64294;49.176;16.626;2023-01-31T14:09:28;99441.44;;;5.00;62.17
75681;BME280;64294;49.176;16.626;2023-01-31T14:11:55;99428.75;;;4.99;61.20
75681;BME280;64294;49.176;16.626;2023-01-31T14:14:39;99434.84;;;4.97;62.35
75681;BME280;64294;49.176;16.626;2023-01-31T14:27:45;99429.25;;;4.60;64.63
75681;BME280;64294;49.176;16.626;2023-01-31T14:30:43;99430.19;;;4.51;64.25
75681;BME280;64294;49.176;16.626;2023-01-31T14:39:00;99411.78;;;4.28;65.21
75681;BME280;64294;49.176;16.626;2023-01-31T14:52:29;99413.66;;;4.42;66.29
75681;BME280;64294;49.176;16.626;2023-01-31T14:58:02;99407.03;;;4.34;67.01
75681;BME280;64294;49.176;16.626;2023-01-31T15:00:32;99407.44;;;4.27;67.37
75681;BME280;64294;49.176;16.626;2023-01-31T15:03:24;99396.50;;;4.18;67.91
75681;BME280;64294;49.176;16.626;2023-01-31T15:06:13;99394.16;;;4.11;68.56
75681;BME280;64294;49.176;16.626;2023-01-31T15:08:42;99404.94;;;4.03;68.80
75681;BME280;64294;49.176;16.626;2023-01-31T15:14:18;99410.47;;;3.98;68.76
75681;BME280;64294;49.176;16.626;2023-01-31T15:16:45;99395.44;;;3.89;69.28
75681;BME280;64294;49.176;16.626;2023-01-31T15:19:14;99392.13;;;3.85;69.67
75681;BME280;64294;49.176;16.626;2023-01-31T15:21:44;99391.63;;;3.87;69.75
75681;BME280;64294;49.176;16.626;2023-01-31T15:24:32;99398.19;;;3.84;69.71